createdAt,value
2018-01-20T00:00:04.433Z,5
2018-01-20T00:05:02.872Z,4
2018-01-20T00:10:03.421Z,7
2018-01-20T00:15:03.009Z,5
2018-01-20T00:20:03.539Z,4
2018-01-20T00:25:03.098Z,8
2018-01-20T00:30:02.614Z,5
2018-01-20T00:35:03.314Z,3
2018-01-20T00:40:02.840Z,7
2018-01-20T00:45:03.303Z,3
2018-01-20T00:50:02.757Z,7
2018-01-20T00:55:03.261Z,2
2018-01-20T01:00:02.751Z,7
2018-01-20T01:05:02.796Z,7
2018-01-20T01:10:03.556Z,7
2018-01-20T01:15:03.101Z,5
2018-01-20T01:20:02.765Z,5
2018-01-20T01:25:03.230Z,4
2018-01-20T01:30:02.678Z,4
2018-01-20T01:35:03.183Z,3
2018-01-20T01:40:02.833Z,6
2018-01-20T01:45:03.185Z,6
2018-01-20T01:50:02.632Z,6
2018-01-20T01:55:03.098Z,7
2018-01-20T02:00:03.597Z,7
2018-01-20T02:05:03.166Z,9
2018-01-20T02:10:02.791Z,3
2018-01-20T02:15:03.504Z,3
2018-01-20T02:20:03.091Z,3
2018-01-20T02:25:03.481Z,3
2018-01-20T02:30:03.014Z,6
2018-01-20T02:35:02.662Z,6
2018-01-20T02:40:03.194Z,3
2018-01-20T02:45:02.639Z,3
2018-01-20T02:50:03.315Z,4
2018-01-20T02:55:02.839Z,5
2018-01-20T03:00:03.473Z,3
2018-01-20T03:05:03.071Z,6
2018-01-20T03:10:03.497Z,9
2018-01-20T03:15:02.858Z,4
2018-01-20T03:20:03.447Z,7
2018-01-20T03:25:02.899Z,7
2018-01-20T03:30:03.524Z,7
2018-01-20T03:35:02.980Z,7
2018-01-20T03:40:02.634Z,5
2018-01-20T03:45:03.037Z,6
2018-01-20T03:50:03.515Z,5
2018-01-20T03:55:02.917Z,5
2018-01-20T04:00:03.507Z,5
2018-01-20T04:05:03.043Z,8
2018-01-20T04:10:03.611Z,5
2018-01-20T04:15:03.011Z,5
2018-01-20T04:20:03.492Z,5
2018-01-20T04:25:02.942Z,5
2018-01-20T04:30:03.514Z,3
2018-01-20T04:35:03.015Z,4
2018-01-20T04:40:03.561Z,3
2018-01-20T04:45:03.213Z,0
2018-01-20T04:50:02.844Z,3
2018-01-20T04:55:03.474Z,4
2018-01-20T05:00:03.011Z,4
2018-01-20T05:05:03.429Z,5
2018-01-20T05:10:02.935Z,6
2018-01-20T05:15:03.571Z,5
2018-01-20T05:20:03.227Z,4
2018-01-20T05:25:02.690Z,8
2018-01-20T05:30:03.530Z,5
2018-01-20T05:35:03.093Z,4
2018-01-20T05:40:02.694Z,6
2018-01-20T05:45:03.282Z,6
2018-01-20T05:50:02.765Z,6
2018-01-20T05:55:03.186Z,9
2018-01-20T06:00:02.655Z,6
2018-01-20T06:05:03.251Z,6
2018-01-20T06:10:02.978Z,10
2018-01-20T06:15:03.433Z,4
2018-01-20T06:20:02.996Z,5
2018-01-20T06:25:03.587Z,5
2018-01-20T06:30:03.243Z,3
2018-01-20T06:35:02.837Z,4
2018-01-20T06:40:03.321Z,6
2018-01-20T06:45:02.858Z,4
2018-01-20T06:50:03.434Z,3
2018-01-20T06:55:03.004Z,4
2018-01-20T07:00:03.404Z,3
2018-01-20T07:05:03.037Z,3
2018-01-20T07:10:02.694Z,5
2018-01-20T07:15:03.285Z,6
2018-01-20T07:20:02.737Z,3
2018-01-20T07:25:03.320Z,2
2018-01-20T07:30:03.076Z,4
2018-01-20T07:35:03.542Z,3
2018-01-20T07:40:03.205Z,4
2018-01-20T07:45:02.659Z,3
2018-01-20T07:50:03.262Z,3
2018-01-20T07:55:02.879Z,3
2018-01-20T08:00:03.377Z,3
2018-01-20T08:05:02.790Z,3
2018-01-20T08:10:03.288Z,3
2018-01-20T08:15:02.746Z,3
2018-01-20T08:20:03.393Z,3
2018-01-20T08:25:03.058Z,4
2018-01-20T08:30:02.611Z,3
2018-01-20T08:35:03.159Z,2
2018-01-20T08:40:02.692Z,3
2018-01-20T08:45:03.135Z,4
2018-01-20T08:50:03.625Z,3
2018-01-20T08:55:03.106Z,4
2018-01-20T09:00:02.744Z,3
2018-01-20T09:05:03.385Z,0
2018-01-20T09:10:02.855Z,2
2018-01-20T09:15:03.228Z,3
2018-01-20T09:20:02.730Z,1
2018-01-20T09:25:03.216Z,3
2018-01-20T09:30:02.657Z,4
2018-01-20T09:35:03.199Z,3
2018-01-20T09:40:02.729Z,3
2018-01-20T09:45:03.307Z,4
2018-01-20T09:50:02.768Z,2
2018-01-20T09:55:03.812Z,0
2018-01-20T10:00:03.391Z,2
2018-01-20T10:05:02.960Z,5
2018-01-20T10:10:03.551Z,3
2018-01-20T10:15:03.127Z,7
2018-01-20T10:20:02.716Z,5
2018-01-20T10:25:03.072Z,5
2018-01-20T10:30:02.792Z,6
2018-01-20T10:35:03.538Z,5
2018-01-20T10:40:03.070Z,4
2018-01-20T10:45:02.598Z,5
2018-01-20T10:50:03.144Z,3
2018-01-20T10:55:03.573Z,4
2018-01-20T11:00:03.143Z,2
2018-01-20T11:05:02.736Z,3
2018-01-20T11:10:03.403Z,3
2018-01-20T11:15:02.778Z,1
2018-01-20T11:20:03.472Z,2
2018-01-20T11:25:02.998Z,2
2018-01-20T11:30:02.608Z,2
2018-01-20T11:35:03.182Z,2
2018-01-20T11:40:02.731Z,2
2018-01-20T11:45:03.304Z,4
2018-01-20T11:50:02.975Z,3
2018-01-20T11:55:03.423Z,3
2018-01-20T12:00:03.008Z,3
2018-01-20T12:05:02.640Z,5
2018-01-20T12:10:03.295Z,1
2018-01-20T12:15:02.720Z,3
2018-01-20T12:20:03.427Z,2
2018-01-20T12:25:02.912Z,1
2018-01-20T12:30:03.544Z,0
2018-01-20T12:35:03.171Z,1
2018-01-20T12:40:02.637Z,3
2018-01-20T12:45:03.271Z,0
2018-01-20T12:50:02.761Z,0
2018-01-20T12:55:03.366Z,1
2018-01-20T13:00:03.080Z,0
2018-01-20T13:05:02.716Z,0
2018-01-20T13:10:03.381Z,0
2018-01-20T13:15:02.790Z,0
2018-01-20T13:20:03.377Z,1
2018-01-20T13:25:02.845Z,0
2018-01-20T13:30:03.401Z,2
2018-01-20T13:35:02.919Z,1
2018-01-20T13:40:03.575Z,0
2018-01-20T13:45:03.188Z,1
2018-01-20T13:50:02.771Z,0
2018-01-20T13:55:03.243Z,0
2018-01-20T14:00:03.126Z,0
2018-01-20T14:05:02.906Z,0
2018-01-20T14:10:02.617Z,2
2018-01-20T14:15:03.209Z,0
2018-01-20T14:20:02.959Z,2
2018-01-20T14:25:03.397Z,0
2018-01-20T14:30:02.806Z,0
2018-01-20T14:35:03.418Z,0
2018-01-20T14:40:03.010Z,0
2018-01-20T14:45:02.744Z,0
2018-01-20T14:50:03.240Z,0
2018-01-20T14:55:03.036Z,0
2018-01-20T15:00:02.667Z,0
2018-01-20T15:05:03.390Z,0
2018-01-20T15:10:02.929Z,0
2018-01-20T15:15:03.544Z,1
2018-01-20T15:20:03.365Z,2
2018-01-20T15:25:03.611Z,0
2018-01-20T15:30:03.159Z,0
2018-01-20T15:35:02.992Z,0
2018-01-20T15:40:02.679Z,0
2018-01-20T15:45:03.260Z,0
2018-01-20T15:50:02.912Z,0
2018-01-20T15:55:03.579Z,0
2018-01-20T16:00:03.038Z,0
2018-01-20T16:05:02.686Z,0
2018-01-20T16:10:03.371Z,0
2018-01-20T16:15:02.994Z,0
2018-01-20T16:20:02.733Z,0
2018-01-20T16:25:03.289Z,0
2018-01-20T16:30:02.840Z,0
2018-01-20T16:35:03.380Z,0
2018-01-20T16:40:03.030Z,0
2018-01-20T16:45:03.588Z,0
2018-01-20T16:50:03.101Z,0
2018-01-20T16:55:02.763Z,0
2018-01-20T17:00:03.317Z,0
2018-01-20T17:05:02.919Z,0
2018-01-20T17:10:03.597Z,0
2018-01-20T17:15:03.128Z,0
2018-01-20T17:20:02.614Z,0
2018-01-20T17:25:03.132Z,0
2018-01-20T17:30:02.647Z,0
2018-01-20T17:35:03.188Z,0
2018-01-20T17:40:02.864Z,0
2018-01-20T17:45:03.511Z,0
2018-01-20T17:50:03.081Z,0
2018-01-20T17:55:02.624Z,0
2018-01-20T18:00:03.109Z,0
2018-01-20T18:05:02.746Z,0
2018-01-20T18:10:03.394Z,0
2018-01-20T18:15:02.971Z,0
2018-01-20T18:20:03.447Z,0
2018-01-20T18:25:03.167Z,0
2018-01-20T18:30:02.851Z,0
2018-01-20T18:35:03.442Z,0
2018-01-20T18:40:02.976Z,0
2018-01-20T18:45:02.659Z,0
2018-01-20T18:50:03.313Z,0
2018-01-20T18:55:02.971Z,0
2018-01-20T19:00:03.458Z,0
2018-01-20T19:05:03.060Z,0
2018-01-20T19:10:02.729Z,0
2018-01-20T19:15:03.324Z,0
2018-01-20T19:20:02.915Z,0
2018-01-20T19:25:02.585Z,0
2018-01-20T19:30:03.320Z,0
2018-01-20T19:35:02.919Z,0
2018-01-20T19:40:03.459Z,0
2018-01-20T19:45:02.961Z,0
2018-01-20T19:50:02.623Z,0
2018-01-20T19:55:03.286Z,0
2018-01-20T20:00:02.801Z,0
2018-01-20T20:05:03.245Z,0
2018-01-20T20:10:02.904Z,0
2018-01-20T20:15:03.495Z,1
2018-01-20T20:20:03.255Z,0
2018-01-20T20:25:02.744Z,0
2018-01-20T20:30:03.392Z,0
2018-01-20T20:35:03.090Z,0
2018-01-20T20:40:02.698Z,0
2018-01-20T20:45:03.336Z,0
2018-01-20T20:50:02.994Z,0
2018-01-20T20:55:03.491Z,0
2018-01-20T21:00:02.945Z,0
2018-01-20T21:05:02.679Z,0
2018-01-20T21:10:03.373Z,0
2018-01-20T21:15:02.913Z,0
2018-01-20T21:20:02.760Z,0
2018-01-20T21:25:03.436Z,0
2018-01-20T21:30:03.098Z,0
2018-01-20T21:35:02.846Z,0
2018-01-20T21:40:03.490Z,0
2018-01-20T21:45:03.295Z,0
2018-01-20T21:50:02.793Z,0
2018-01-20T21:55:03.311Z,0
2018-01-20T22:00:03.209Z,0
2018-01-20T22:05:02.736Z,0
2018-01-20T22:10:03.337Z,0
2018-01-20T22:15:02.953Z,0
2018-01-20T22:20:02.592Z,0
2018-01-20T22:25:03.135Z,0
2018-01-20T22:30:03.774Z,0
2018-01-20T22:35:03.399Z,0
2018-01-20T22:40:02.949Z,0
2018-01-20T22:45:02.742Z,0
2018-01-20T22:50:03.486Z,0
2018-01-20T22:55:03.193Z,0
2018-01-20T23:00:02.784Z,0
2018-01-20T23:05:03.565Z,0
2018-01-20T23:10:03.158Z,1
2018-01-20T23:15:02.649Z,0
2018-01-20T23:20:03.325Z,0
2018-01-20T23:25:02.925Z,0
2018-01-20T23:30:03.416Z,0
2018-01-20T23:35:03.041Z,0
2018-01-20T23:40:03.612Z,0
2018-01-20T23:45:03.124Z,0
2018-01-20T23:50:02.677Z,0
2018-01-20T23:55:03.231Z,0
